Date,TemperatureHighF,TemperatureAvgF,TemperatureLowF,DewpointHighF,DewpointAvgF,DewpointLowF,HumidityHigh,HumidityAvg,HumidityLow,PressureMaxIn,PressureMinIn,WindSpeedMaxMPH,WindSpeedAvgMPH,GustSpeedMaxMPH,PrecipitationSumIn
2013-3-1,43.6,37.4,30.6,34.9,28.6,23.7,93,72,50,29.73,29.56,10,1,10,0.00
2013-3-2,38.2,34.3,29.5,26.7,23.5,21.4,87,65,55,29.73,29.65,8,1,10,0.00
2013-3-3,38.3,31.1,27.3,24.4,19.0,16.1,81,61,44,29.71,29.61,12,1,12,0.00
2013-3-4,39.3,31.6,26.6,20.6,18.0,14.6,72,57,44,29.85,29.71,16,2,16,0.00
2013-3-5,45.5,36.3,26.3,25.9,22.8,18.6,79,59,43,29.99,29.85,10,1,12,0.00
2013-3-6,41.5,38.2,36.3,35.3,29.0,25.6,86,70,60,29.96,29.85,21,4,22,0.00
2013-3-7,37.2,34.2,31.6,31.4,28.4,24.4,93,80,65,30.04,29.90,16,3,18,0.00
2013-3-8,39.6,35.1,31.3,34.2,29.8,22.6,94,82,56,30.15,29.96,17,2,18,0.00
2013-3-9,51.7,40.0,30.9,24.7,20.8,14.0,73,49,23,30.28,30.14,11,2,14,0.00
2013-3-10,48.8,37.0,25.3,36.1,28.8,22.0,88,73,48,30.35,30.26,6,1,8,0.00
2013-3-11,52.5,44.5,36.3,47.2,38.9,32.1,89,81,63,30.28,30.05,9,1,11,0.00
2013-3-12,58.3,52.6,43.1,56.5,49.6,39.0,94,90,79,30.06,29.62,16,3,18,0.00
2013-3-13,49.4,41.4,34.6,40.1,30.5,18.9,93,69,33,29.84,29.74,11,1,14,0.00
2013-3-14,36.8,32.1,27.0,27.4,11.7,3.4,71,44,26,29.90,29.80,17,2,17,0.00
2013-3-15,41.2,34.5,26.9,29.0,17.7,4.0,66,50,32,29.91,29.69,13,1,13,0.00
2013-3-16,37.2,32.3,28.8,27.9,22.6,15.9,86,69,44,29.90,29.75,7,0,7,0.00
2013-3-17,36.9,31.0,26.7,27.9,17.2,7.5,90,59,31,30.28,29.90,10,1,10,0.00
2013-3-18,33.4,28.4,22.4,30.7,13.7,4.5,93,56,36,30.39,30.02,10,1,14,0.00
2013-3-19,42.5,37.4,32.5,40.3,35.1,28.9,94,91,83,30.02,29.65,13,1,17,0.08
2013-3-20,42.1,34.9,28.1,28.9,19.5,14.4,83,55,34,29.83,29.74,12,1,13,0.02
2013-3-21,36.5,32.9,29.8,25.8,17.0,9.2,79,53,33,29.80,29.58,8,1,11,0.00
2013-3-22,39.9,32.9,26.1,23.5,17.5,10.4,70,53,39,29.83,29.68,13,1,14,0.00
2013-3-23,43.6,36.7,30.7,23.0,19.0,15.5,65,49,34,29.88,29.76,13,2,18,0.00
2013-3-24,44.3,36.2,26.9,24.2,20.3,15.9,78,53,37,29.90,29.68,8,1,10,0.00
2013-3-25,42.5,38.4,34.3,31.5,25.4,21.9,73,60,47,29.68,29.42,13,2,14,0.00
2013-3-26,48.5,39.8,32.4,29.3,25.7,21.9,79,59,38,29.81,29.54,9,1,10,0.00
2013-3-27,51.4,39.1,27.2,28.6,24.7,20.7,82,59,30,29.91,29.81,11,1,12,0.00
2013-3-28,47.9,40.5,31.5,31.3,28.5,25.8,81,63,48,30.06,29.91,11,1,13,0.00
2013-3-29,54.4,43.2,31.9,29.9,27.2,23.1,80,55,30,30.09,30.01,10,1,12,0.00
2013-3-30,57.0,43.5,30.1,31.6,24.0,16.7,85,51,22,30.12,30.01,8,1,10,0.00
2013-3-31,47.0,32.8,29.4,31.0,24.3,22.8,79,71,54,30.09,30.04,3,0,4,0.00